createdAt,value
2023-03-27T00:01:18.259Z,98744.03
2023-03-27T00:03:49.352Z,98735.13
2023-03-27T00:06:17.513Z,98734.13
2023-03-27T00:08:51.483Z,98730.75
2023-03-27T00:11:21.901Z,98728.75
2023-03-27T00:13:51.425Z,98724.88
2023-03-27T00:16:23.993Z,98713.97
2023-03-27T00:18:51.349Z,98717.16
2023-03-27T00:21:17.913Z,98705.38
2023-03-27T00:23:44.515Z,98713.66
2023-03-27T00:26:12.128Z,98713.97
2023-03-27T00:28:39.294Z,98715.31
2023-03-27T00:31:11.661Z,98710.63
2023-03-27T00:33:38.577Z,98700.56
2023-03-27T00:36:06.237Z,98701.28
2023-03-27T00:38:33.943Z,98697.19
2023-03-27T00:41:01.267Z,98695.38
2023-03-27T00:43:36.296Z,98686.47
2023-03-27T00:46:08.051Z,98677.59
2023-03-27T00:48:37.721Z,98673.03
2023-03-27T00:51:06.011Z,98666.16
2023-03-27T00:53:33.595Z,98668.03
2023-03-27T00:56:03.754Z,98666.16
2023-03-27T00:58:37.327Z,98651.06
2023-03-27T01:01:04.004Z,98652.72
2023-03-27T01:03:32.890Z,98647.34
2023-03-27T01:06:03.776Z,98636.81
2023-03-27T01:08:33.854Z,98625.88
2023-03-27T01:11:23.828Z,98626.72
2023-03-27T01:14:15.679Z,98621.34
2023-03-27T01:17:13.050Z,98624.03
2023-03-27T01:20:07.196Z,98622.03
2023-03-27T01:23:02.659Z,98620.69
2023-03-27T01:25:50.274Z,98617.38
2023-03-27T01:28:23.873Z,98614.19
2023-03-27T01:30:56.449Z,98606.13
2023-03-27T01:33:35.008Z,98606.34
2023-03-27T01:36:25.033Z,98600.28
2023-03-27T01:39:11.065Z,98605.66
2023-03-27T01:42:06.292Z,98602.16
2023-03-27T01:44:43.203Z,98599.28
2023-03-27T01:47:51.187Z,98597.47
2023-03-27T01:50:23.852Z,98592.28
2023-03-27T01:52:56.334Z,98586.59
2023-03-27T01:55:28.127Z,98582.22
2023-03-27T01:58:03.202Z,98590.63
2023-03-27T02:00:51.936Z,98581.91
2023-03-27T02:03:22.714Z,98584.94
2023-03-27T02:06:00.633Z,98584.09
2023-03-27T02:08:40.534Z,98587.13
2023-03-27T02:11:07.761Z,98589.97
2023-03-27T02:13:39.788Z,98590.63
2023-03-27T02:16:10.835Z,98579.72
2023-03-27T02:18:47.592Z,98579.56
2023-03-27T02:21:15.324Z,98577.06
2023-03-27T02:23:42.137Z,98562.63
2023-03-27T02:26:13.139Z,98563.09
2023-03-27T02:29:01.615Z,98543.34
2023-03-27T02:31:40.424Z,98527.25
2023-03-27T02:34:21.974Z,98523.88
2023-03-27T02:36:57.654Z,98514.31
2023-03-27T02:39:38.199Z,98502.94
2023-03-27T02:42:13.416Z,98499.59
2023-03-27T02:45:08.304Z,98497.56
2023-03-27T02:47:43.928Z,98494.22
2023-03-27T02:50:21.896Z,98487.53
2023-03-27T02:52:53.540Z,98491.22
2023-03-27T02:55:33.258Z,98488.53
2023-03-27T02:58:19.792Z,98479.47
2023-03-27T03:00:50.408Z,98468.41
2023-03-27T03:03:28.062Z,98474.59
2023-03-27T03:05:56.645Z,98475.44
2023-03-27T03:08:24.176Z,98466.72
2023-03-27T03:10:50.858Z,98467.91
2023-03-27T03:13:18.139Z,98457.84
2023-03-27T03:15:49.542Z,98465.09
2023-03-27T03:18:17.118Z,98474.16
2023-03-27T03:20:44.480Z,98470.13
2023-03-27T03:23:11.124Z,98469.97
2023-03-27T03:25:37.700Z,98468.66
2023-03-27T03:28:08.146Z,98473.34
2023-03-27T03:30:34.806Z,98473.69
2023-03-27T03:33:01.409Z,98464.78
2023-03-27T03:35:28.251Z,98477.34
2023-03-27T03:37:54.842Z,98477.03
2023-03-27T03:40:21.506Z,98476.38
2023-03-27T03:42:52.607Z,98475.38
2023-03-27T03:45:19.913Z,98466.31
2023-03-27T03:47:46.772Z,98463.09
2023-03-27T03:50:14.189Z,98460.44
2023-03-27T03:52:41.757Z,98456.91
2023-03-27T03:55:11.917Z,98456.91
2023-03-27T03:57:38.547Z,98455.75
2023-03-27T04:00:11.558Z,98456.72
2023-03-27T04:02:40.692Z,98461.94
2023-03-27T04:05:09.075Z,98453.06
2023-03-27T04:07:36.484Z,98454.91
2023-03-27T04:10:04.002Z,98448.50
2023-03-27T04:12:30.604Z,98448.50
2023-03-27T04:14:57.355Z,98454.03
2023-03-27T04:17:26.293Z,98460.25
2023-03-27T04:19:57.287Z,98455.06
2023-03-27T04:22:24.085Z,98452.38
2023-03-27T04:24:50.834Z,98448.38
2023-03-27T04:27:18.825Z,98451.22
2023-03-27T04:29:47.339Z,98449.69
2023-03-27T04:32:19.244Z,98451.53
2023-03-27T04:34:48.250Z,98448.19
2023-03-27T04:37:15.245Z,98450.03
2023-03-27T04:39:46.472Z,98444.88
2023-03-27T04:42:16.450Z,98443.16
2023-03-27T04:44:46.502Z,98436.13
2023-03-27T04:47:13.290Z,98441.34
2023-03-27T04:49:46.708Z,98439.66
2023-03-27T04:52:16.459Z,98436.81
2023-03-27T04:54:43.871Z,98434.13
2023-03-27T04:57:11.309Z,98425.25
2023-03-27T04:59:37.905Z,98432.63
2023-03-27T05:02:06.493Z,98429.09
2023-03-27T05:04:33.625Z,98433.63
2023-03-27T05:07:00.776Z,98420.88
2023-03-27T05:09:27.505Z,98414.84
2023-03-27T05:11:54.360Z,98408.50
2023-03-27T05:14:23.478Z,98410.34
2023-03-27T05:16:52.303Z,98414.03
2023-03-27T05:19:20.173Z,98407.81
2023-03-27T05:21:47.514Z,98416.72
2023-03-27T05:24:15.531Z,98405.97
2023-03-27T05:26:43.297Z,98411.34
2023-03-27T05:29:10.252Z,98409.47
2023-03-27T05:31:37.422Z,98414.84
2023-03-27T05:34:04.270Z,98411.50
2023-03-27T05:36:30.834Z,98418.75
2023-03-27T05:38:58.092Z,98401.81
2023-03-27T05:41:25.043Z,98406.16
2023-03-27T05:43:51.803Z,98405.31
2023-03-27T05:46:20.751Z,98405.31
2023-03-27T05:48:48.500Z,98392.09
2023-03-27T05:51:15.963Z,98399.28
2023-03-27T05:53:43.056Z,98393.28
2023-03-27T05:56:10.530Z,98381.84
2023-03-27T05:58:37.520Z,98386.03
2023-03-27T06:01:04.804Z,98381.53
2023-03-27T06:03:31.551Z,98382.38
2023-03-27T06:06:01.020Z,98384.38
2023-03-27T06:08:29.475Z,98381.03
2023-03-27T06:10:56.234Z,98376.50
2023-03-27T06:13:24.161Z,98378.38
2023-03-27T06:15:54.087Z,98375.69
2023-03-27T06:18:21.033Z,98377.50
2023-03-27T06:20:47.623Z,98370.47
2023-03-27T06:23:14.489Z,98369.84
2023-03-27T06:25:41.373Z,98362.81
2023-03-27T06:28:09.333Z,98368.50
2023-03-27T06:30:38.321Z,98365.16
2023-03-27T06:33:06.198Z,98365.97
2023-03-27T06:35:34.107Z,98368.66
2023-03-27T06:38:02.758Z,98369.66
2023-03-27T06:40:31.468Z,98372.19
2023-03-27T06:43:09.018Z,98373.84
2023-03-27T06:45:42.998Z,98368.34
2023-03-27T06:48:13.603Z,98360.13
2023-03-27T06:50:45.224Z,98367.31
2023-03-27T06:53:25.779Z,98364.81
2023-03-27T06:55:53.696Z,98368.50
2023-03-27T06:58:20.502Z,98368.84
2023-03-27T07:00:49.852Z,98384.56
2023-03-27T07:03:17.974Z,98377.38
2023-03-27T07:05:45.198Z,98380.06
2023-03-27T07:08:23.399Z,98380.88
2023-03-27T07:11:09.805Z,98388.75
2023-03-27T07:13:38.086Z,98388.75
2023-03-27T07:16:05.390Z,98386.09
2023-03-27T07:18:32.221Z,98390.91
2023-03-27T07:20:59.267Z,98388.44
2023-03-27T07:23:26.670Z,98382.06
2023-03-27T07:26:00.576Z,98381.03
2023-03-27T07:28:27.804Z,98380.19
2023-03-27T07:30:54.408Z,98380.50
2023-03-27T07:33:21.184Z,98390.06
2023-03-27T07:35:48.605Z,98389.03
2023-03-27T07:38:16.628Z,98394.06
2023-03-27T07:40:46.096Z,98390.38
2023-03-27T07:43:13.448Z,98394.91
2023-03-27T07:45:41.275Z,98397.41
2023-03-27T07:48:10.371Z,98399.94
2023-03-27T07:50:37.750Z,98407.59
2023-03-27T07:53:06.495Z,98395.94
2023-03-27T07:55:33.703Z,98395.56
2023-03-27T07:58:02.889Z,98403.44
2023-03-27T08:00:31.346Z,98396.41
2023-03-27T08:03:10.030Z,98398.09
2023-03-27T08:05:37.923Z,98388.84
2023-03-27T08:08:05.062Z,98397.72
2023-03-27T08:10:31.876Z,98390.69
2023-03-27T08:12:58.419Z,98396.25
2023-03-27T08:15:25.532Z,98408.81
2023-03-27T08:17:54.860Z,98410.84
2023-03-27T08:20:23.901Z,98408.31
2023-03-27T08:22:52.589Z,98417.53
2023-03-27T08:25:22.361Z,98428.78
2023-03-27T08:27:49.349Z,98427.44
2023-03-27T08:30:17.200Z,98424.09
2023-03-27T08:32:44.271Z,98426.94
2023-03-27T08:35:10.922Z,98435.81
2023-03-27T08:37:37.727Z,98426.25
2023-03-27T08:40:11.060Z,98435.16
2023-03-27T08:42:42.291Z,98440.50
2023-03-27T08:45:18.882Z,98442.88
2023-03-27T08:47:56.606Z,98438.97
2023-03-27T08:50:46.553Z,98447.88
2023-03-27T08:53:34.248Z,98445.84
2023-03-27T08:56:01.304Z,98447.53
2023-03-27T08:58:27.895Z,98442.84
2023-03-27T09:01:07.024Z,98432.75
2023-03-27T09:03:45.171Z,98433.47
2023-03-27T09:06:34.203Z,98435.13
2023-03-27T09:09:15.295Z,98437.66
2023-03-27T09:11:54.934Z,98439.81
2023-03-27T09:14:47.972Z,98441.66
2023-03-27T09:17:26.543Z,98434.78
2023-03-27T09:20:10.566Z,98449.22
2023-03-27T09:22:44.286Z,98444.84
2023-03-27T09:25:29.003Z,98452.75
2023-03-27T09:27:56.253Z,98446.34
2023-03-27T09:30:27.066Z,98452.38
2023-03-27T09:32:58.372Z,98457.41
2023-03-27T09:35:25.302Z,98459.56
2023-03-27T09:37:58.608Z,98452.38
2023-03-27T09:40:33.862Z,98463.25
2023-03-27T09:43:08.710Z,98466.13
2023-03-27T09:45:40.688Z,98464.13
2023-03-27T09:48:15.456Z,98474.31
2023-03-27T09:50:46.179Z,98477.00
2023-03-27T09:53:23.040Z,98472.81
2023-03-27T09:55:58.822Z,98480.56
2023-03-27T09:58:31.989Z,98482.91
2023-03-27T10:01:17.018Z,98491.09
2023-03-27T10:03:51.935Z,98489.09
2023-03-27T10:06:30.665Z,98486.44
2023-03-27T10:09:02.089Z,98492.78
2023-03-27T10:11:33.011Z,98495.47
2023-03-27T10:14:01.684Z,98497.47
2023-03-27T10:16:29.845Z,98500.16
2023-03-27T10:18:59.836Z,98501.84
2023-03-27T10:21:28.300Z,98507.88
2023-03-27T10:24:06.650Z,98501.50
2023-03-27T10:26:37.063Z,98501.50
2023-03-27T10:29:22.362Z,98505.34
2023-03-27T10:31:52.639Z,98508.19
2023-03-27T10:34:38.494Z,98510.22
2023-03-27T10:37:27.321Z,98514.72
2023-03-27T10:40:00.048Z,98524.28
2023-03-27T10:42:31.311Z,98525.78
2023-03-27T10:44:59.263Z,98526.00
2023-03-27T10:47:30.914Z,98524.78
2023-03-27T10:50:03.924Z,98524.47
2023-03-27T10:52:38.905Z,98517.06
2023-03-27T10:55:05.486Z,98518.56
2023-03-27T10:57:38.179Z,98520.13
2023-03-27T11:00:21.171Z,98525.97
2023-03-27T11:02:57.548Z,98526.47
2023-03-27T11:05:36.357Z,98517.25
2023-03-27T11:08:05.654Z,98529.84
2023-03-27T11:10:46.941Z,98535.03
2023-03-27T11:13:31.203Z,98533.34
2023-03-27T11:16:19.407Z,98542.22
2023-03-27T11:18:54.147Z,98538.03
2023-03-27T11:21:55.868Z,98533.69
2023-03-27T11:24:34.976Z,98542.38
2023-03-27T11:27:17.037Z,98544.41
2023-03-27T11:29:58.839Z,98547.91
2023-03-27T11:32:41.130Z,98544.75
2023-03-27T11:35:15.903Z,98548.28
2023-03-27T11:37:59.639Z,98550.78
2023-03-27T11:40:35.272Z,98541.38
2023-03-27T11:43:02.606Z,98537.34
2023-03-27T11:45:41.088Z,98539.22
2023-03-27T11:48:16.357Z,98540.03
2023-03-27T11:51:10.648Z,98537.50
2023-03-27T11:53:39.936Z,98541.84
2023-03-27T11:56:15.500Z,98540.28
2023-03-27T11:59:05.625Z,98537.78
2023-03-27T12:01:37.469Z,98550.19
2023-03-27T12:04:40.068Z,98547.31
2023-03-27T12:07:35.860Z,98549.16
2023-03-27T12:10:34.030Z,98561.22
2023-03-27T12:13:18.883Z,98554.84
2023-03-27T12:16:19.166Z,98544.97
2023-03-27T12:19:03.822Z,98553.34
2023-03-27T12:22:00.736Z,98561.41
2023-03-27T12:24:57.038Z,98563.44
2023-03-27T12:27:37.381Z,98562.59
2023-03-27T12:30:24.729Z,98564.94
2023-03-27T12:33:07.110Z,98570.31
2023-03-27T12:35:41.531Z,98563.44
2023-03-27T12:38:39.028Z,98577.88
2023-03-27T12:41:05.860Z,98579.38
2023-03-27T12:43:40.721Z,98581.03
2023-03-27T12:46:13.819Z,98580.56
2023-03-27T12:49:07.602Z,98599.63
2023-03-27T12:51:51.838Z,98602.31
2023-03-27T12:54:31.191Z,98604.34
2023-03-27T12:57:08.266Z,98606.38
2023-03-27T12:59:49.977Z,98612.94
2023-03-27T13:02:31.608Z,98627.03
2023-03-27T13:05:26.920Z,98662.94
2023-03-27T13:08:14.375Z,98648.66
2023-03-27T13:10:59.072Z,98663.72
2023-03-27T13:13:44.832Z,98679.09
2023-03-27T13:16:36.329Z,98660.19
2023-03-27T13:19:14.863Z,98683.44
2023-03-27T13:22:26.117Z,98678.53
2023-03-27T13:25:01.833Z,98676.66
2023-03-27T13:27:47.728Z,98678.47
2023-03-27T13:30:42.818Z,98697.88
2023-03-27T13:33:30.022Z,98709.59
2023-03-27T13:36:20.612Z,98716.91
2023-03-27T13:38:56.629Z,98731.13
2023-03-27T13:41:44.681Z,98735.75
2023-03-27T13:44:43.583Z,98745.41
2023-03-27T13:47:35.012Z,98765.47
2023-03-27T13:50:29.826Z,98761.88
2023-03-27T13:53:15.418Z,98784.75
2023-03-27T13:56:15.263Z,98790.97
2023-03-27T13:59:05.440Z,98791.22
2023-03-27T14:01:54.000Z,98807.31
2023-03-27T14:04:52.499Z,98821.16
2023-03-27T14:07:43.914Z,98827.44
2023-03-27T14:10:31.369Z,98812.81
2023-03-27T14:13:18.116Z,98869.03
2023-03-27T14:16:08.765Z,98864.31
2023-03-27T14:19:12.321Z,98867.31
2023-03-27T14:22:23.546Z,98885.47
2023-03-27T14:24:58.695Z,98883.94
2023-03-27T14:27:26.431Z,98872.00
2023-03-27T14:30:17.011Z,98912.91
2023-03-27T14:32:44.443Z,98926.72
2023-03-27T14:35:36.073Z,98932.63
2023-03-27T14:38:16.800Z,98933.34
2023-03-27T14:40:47.581Z,98939.81
2023-03-27T14:43:17.808Z,98947.69
2023-03-27T14:45:45.103Z,98954.28
2023-03-27T14:48:37.157Z,98976.50
2023-03-27T14:51:09.490Z,98955.97
2023-03-27T14:53:44.435Z,98980.72
2023-03-27T14:56:26.391Z,99007.09
2023-03-27T14:58:56.606Z,98985.91
2023-03-27T15:01:23.305Z,98993.94
2023-03-27T15:03:53.020Z,98980.59
2023-03-27T15:06:23.302Z,98991.66
2023-03-27T15:08:59.934Z,99007.97
2023-03-27T15:11:37.316Z,99006.09
2023-03-27T15:14:05.037Z,99016.22
2023-03-27T15:16:35.834Z,99021.25
2023-03-27T15:19:05.075Z,99022.22
2023-03-27T15:21:47.199Z,99015.44
2023-03-27T15:24:52.584Z,99059.22
2023-03-27T15:27:25.644Z,99027.88
2023-03-27T15:30:01.251Z,99042.28
2023-03-27T15:32:42.331Z,99064.72
2023-03-27T15:35:15.753Z,99058.00
2023-03-27T15:37:42.865Z,99050.25
2023-03-27T15:40:10.970Z,99079.25
2023-03-27T15:42:52.916Z,99077.38
2023-03-27T15:45:34.311Z,99066.38
2023-03-27T15:48:05.604Z,99083.63
2023-03-27T15:50:33.999Z,99105.75
2023-03-27T15:53:02.292Z,99122.72
2023-03-27T15:55:47.734Z,99115.25
2023-03-27T15:58:26.692Z,99110.16
2023-03-27T16:00:59.551Z,99123.31
2023-03-27T16:03:27.637Z,99148.13
2023-03-27T16:05:58.197Z,99160.41
2023-03-27T16:08:34.014Z,99155.91
2023-03-27T16:11:01.604Z,99170.91
2023-03-27T16:13:37.250Z,99180.84
2023-03-27T16:16:21.395Z,99190.78
2023-03-27T16:18:49.312Z,99201.44
2023-03-27T16:21:16.100Z,99206.78
2023-03-27T16:23:43.983Z,99227.34
2023-03-27T16:26:16.021Z,99230.16
2023-03-27T16:28:42.956Z,99234.38
2023-03-27T16:31:18.328Z,99242.38
2023-03-27T16:33:46.299Z,99238.97
2023-03-27T16:36:16.069Z,99237.63
2023-03-27T16:38:43.853Z,99228.91
2023-03-27T16:41:15.280Z,99230.00
2023-03-27T16:43:43.077Z,99254.22
2023-03-27T16:46:23.284Z,99291.53
2023-03-27T16:48:51.362Z,99282.44
2023-03-27T16:51:19.377Z,99295.00
2023-03-27T16:53:46.113Z,99311.00
2023-03-27T16:56:12.891Z,99306.53
2023-03-27T16:58:40.301Z,99299.63
2023-03-27T17:01:08.789Z,99298.75
2023-03-27T17:03:37.170Z,99321.78
2023-03-27T17:06:06.637Z,99339.56
2023-03-27T17:08:33.545Z,99370.44
2023-03-27T17:11:06.652Z,99361.75
2023-03-27T17:13:33.604Z,99376.75
2023-03-27T17:16:00.449Z,99386.53
2023-03-27T17:18:27.207Z,99394.53
2023-03-27T17:20:53.997Z,99402.53
2023-03-27T17:23:20.840Z,99412.19
2023-03-27T17:25:48.412Z,99405.44
2023-03-27T17:28:15.317Z,99420.56
2023-03-27T17:30:56.368Z,99407.34
2023-03-27T17:33:28.608Z,99434.25
2023-03-27T17:35:57.240Z,99438.81
2023-03-27T17:38:24.370Z,99433.13
2023-03-27T17:40:51.741Z,99415.56
2023-03-27T17:43:18.489Z,99436.25
2023-03-27T17:45:45.488Z,99412.41
2023-03-27T17:48:12.096Z,99428.97
2023-03-27T17:50:39.626Z,99443.47
2023-03-27T17:53:06.994Z,99439.88
2023-03-27T17:55:36.858Z,99470.44
2023-03-27T17:58:09.272Z,99470.91
2023-03-27T18:00:37.853Z,99464.97
2023-03-27T18:03:04.980Z,99478.72
2023-03-27T18:05:36.590Z,99491.31
2023-03-27T18:08:03.636Z,99497.72
2023-03-27T18:10:30.277Z,99497.19
2023-03-27T18:12:59.086Z,99501.91
2023-03-27T18:15:25.625Z,99522.41
2023-03-27T18:17:52.816Z,99513.91
2023-03-27T18:20:19.463Z,99519.38
2023-03-27T18:22:46.075Z,99519.47
2023-03-27T18:25:12.712Z,99543.53
2023-03-27T18:27:43.395Z,99517.69
2023-03-27T18:30:13.373Z,99519.69
2023-03-27T18:32:42.619Z,99557.91
2023-03-27T18:35:14.011Z,99548.31
2023-03-27T18:37:42.545Z,99556.53
2023-03-27T18:40:11.777Z,99565.25
2023-03-27T18:42:40.440Z,99556.63
2023-03-27T18:45:08.538Z,99584.31
2023-03-27T18:47:36.304Z,99560.25
2023-03-27T18:50:05.102Z,99574.91
2023-03-27T18:52:32.052Z,99583.97
2023-03-27T18:54:58.786Z,99581.22
2023-03-27T18:57:25.632Z,99580.91
2023-03-27T18:59:52.487Z,99600.50
2023-03-27T19:02:19.168Z,99608.56
2023-03-27T19:04:47.895Z,99617.72
2023-03-27T19:07:16.384Z,99631.44
2023-03-27T19:09:43.537Z,99630.47
2023-03-27T19:12:11.051Z,99634.19
2023-03-27T19:14:37.748Z,99630.56
2023-03-27T19:17:05.295Z,99639.41
2023-03-27T19:19:33.655Z,99647.72
2023-03-27T19:22:00.408Z,99647.72
2023-03-27T19:24:27.198Z,99643.38
2023-03-27T19:26:53.801Z,99646.03
2023-03-27T19:29:20.417Z,99655.91
2023-03-27T19:31:47.026Z,99661.31
2023-03-27T19:34:13.764Z,99672.25
2023-03-27T19:36:40.525Z,99657.91
2023-03-27T19:39:07.181Z,99669.19
2023-03-27T19:41:33.740Z,99680.97
2023-03-27T19:44:00.663Z,99671.75
2023-03-27T19:46:28.467Z,99688.94
2023-03-27T19:48:55.865Z,99683.84
2023-03-27T19:51:22.905Z,99691.50
2023-03-27T19:53:50.044Z,99697.28
2023-03-27T19:56:16.992Z,99724.59
2023-03-27T19:58:43.613Z,99702.38
2023-03-27T20:01:10.275Z,99698.09
2023-03-27T20:03:38.474Z,99718.09
2023-03-27T20:06:12.895Z,99704.06
2023-03-27T20:08:41.002Z,99711.50
2023-03-27T20:11:07.753Z,99707.47
2023-03-27T20:13:42.386Z,99722.53
2023-03-27T20:16:15.090Z,99710.75
2023-03-27T20:18:42.771Z,99720.53
2023-03-27T20:21:13.478Z,99718.94
2023-03-27T20:23:42.056Z,99718.09
2023-03-27T20:26:09.315Z,99728.91
2023-03-27T20:28:36.297Z,99735.09
2023-03-27T20:31:05.360Z,99739.78
2023-03-27T20:33:32.193Z,99752.38
2023-03-27T20:35:59.072Z,99735.06
2023-03-27T20:38:29.646Z,99749.41
2023-03-27T20:40:56.403Z,99747.59
2023-03-27T20:43:23.164Z,99752.50
2023-03-27T20:45:54.984Z,99759.72
2023-03-27T20:48:22.225Z,99768.00
2023-03-27T20:50:55.352Z,99757.69
2023-03-27T20:53:26.284Z,99762.19
2023-03-27T20:56:00.679Z,99758.00
2023-03-27T20:58:28.209Z,99769.69
2023-03-27T21:00:56.787Z,99768.19
2023-03-27T21:03:23.434Z,99757.13
2023-03-27T21:05:50.687Z,99759.00
2023-03-27T21:08:17.274Z,99756.91
2023-03-27T21:10:53.125Z,99760.44
2023-03-27T21:13:20.241Z,99753.19
2023-03-27T21:15:46.971Z,99751.81
2023-03-27T21:18:13.576Z,99742.88
2023-03-27T21:20:40.216Z,99747.47
2023-03-27T21:23:06.772Z,99766.97
2023-03-27T21:25:34.922Z,99762.03
2023-03-27T21:28:01.627Z,99764.59
2023-03-27T21:30:46.698Z,99776.16
2023-03-27T21:33:16.206Z,99769.44
2023-03-27T21:35:45.749Z,99781.69
2023-03-27T21:38:13.833Z,99772.84
2023-03-27T21:40:41.006Z,99776.88
2023-03-27T21:43:08.936Z,99779.34
2023-03-27T21:45:36.424Z,99769.84
2023-03-27T21:48:03.507Z,99764.06
2023-03-27T21:50:30.389Z,99774.44
2023-03-27T21:52:57.418Z,99773.88
2023-03-27T21:55:24.033Z,99800.59
2023-03-27T21:57:51.919Z,99788.38
2023-03-27T22:00:19.876Z,99814.66
2023-03-27T22:02:46.508Z,99779.28
2023-03-27T22:05:13.312Z,99790.00
2023-03-27T22:07:39.990Z,99803.19
2023-03-27T22:10:07.046Z,99809.06
2023-03-27T22:12:37.703Z,99816.38
2023-03-27T22:15:06.326Z,99811.22
2023-03-27T22:17:34.869Z,99795.59
2023-03-27T22:20:01.495Z,99821.41
2023-03-27T22:22:28.051Z,99821.59
2023-03-27T22:24:54.612Z,99819.13
2023-03-27T22:27:21.176Z,99840.19
2023-03-27T22:29:47.751Z,99830.22
2023-03-27T22:32:14.373Z,99829.38
2023-03-27T22:34:40.922Z,99818.84
2023-03-27T22:37:07.586Z,99837.53
2023-03-27T22:39:34.144Z,99847.28
2023-03-27T22:42:00.928Z,99846.75
2023-03-27T22:44:31.098Z,99847.59
2023-03-27T22:46:58.897Z,99851.28
2023-03-27T22:49:26.085Z,99865.69
2023-03-27T22:51:52.726Z,99854.81
2023-03-27T22:54:19.429Z,99870.16
2023-03-27T22:56:47.089Z,99873.94
2023-03-27T22:59:14.895Z,99890.91
2023-03-27T23:01:41.553Z,99895.19
2023-03-27T23:04:09.153Z,99883.03
2023-03-27T23:06:35.760Z,99892.91
2023-03-27T23:09:02.338Z,99899.19
2023-03-27T23:11:28.929Z,99905.63
2023-03-27T23:13:55.583Z,99916.44
2023-03-27T23:16:22.232Z,99920.34
2023-03-27T23:18:48.790Z,99924.03
2023-03-27T23:21:18.276Z,99938.50
2023-03-27T23:23:45.383Z,99942.03
2023-03-27T23:26:12.879Z,99933.13
2023-03-27T23:28:41.897Z,99942.47
2023-03-27T23:31:12.893Z,99948.00
2023-03-27T23:33:44.273Z,99946.53
2023-03-27T23:36:13.888Z,99940.66
2023-03-27T23:38:42.056Z,99947.78
2023-03-27T23:41:10.892Z,99940.84
2023-03-27T23:43:37.821Z,99954.19
2023-03-27T23:46:08.609Z,99954.94
2023-03-27T23:48:35.429Z,99959.41
2023-03-27T23:51:02.669Z,99959.41
2023-03-27T23:53:30.536Z,99978.06
2023-03-27T23:55:58.996Z,99976.38
2023-03-27T23:58:28.852Z,99997.75
